sensor_id;sensor_type;location;lat;lon;timestamp;pressure;altitude;pressure_sealevel;temperature;humidity
38939;BME280;24211;49.980;19.776;2022-08-21T02:26:55;98666.34;;;20.79;72.42
38939;BME280;24211;49.980;19.776;2022-08-21T02:29:22;98672.59;;;20.80;72.20
38939;BME280;24211;49.980;19.776;2022-08-21T02:31:50;98663.34;;;20.81;72.45
38939;BME280;24211;49.980;19.776;2022-08-21T02:34:17;98665.25;;;20.80;72.41
38939;BME280;24211;49.980;19.776;2022-08-21T02:36:44;98661.72;;;20.80;72.61
38939;BME280;24211;49.980;19.776;2022-08-21T02:39:25;98662.53;;;20.80;73.07
38939;BME280;24211;49.980;19.776;2022-08-21T02:41:53;98664.13;;;20.81;73.69
38939;BME280;24211;49.980;19.776;2022-08-21T02:44:20;98653.56;;;20.80;73.43
38939;BME280;24211;49.980;19.776;2022-08-21T02:47:00;98660.91;;;20.79;73.64
38939;BME280;24211;49.980;19.776;2022-08-21T02:49:27;98657.38;;;20.79;73.80
38939;BME280;24211;49.980;19.776;2022-08-21T02:51:54;98663.63;;;20.79;73.80
38939;BME280;24211;49.980;19.776;2022-08-21T02:54:22;98649.25;;;20.79;73.90
38939;BME280;24211;49.980;19.776;2022-08-21T02:56:49;98649.25;;;20.79;74.01
38939;BME280;24211;49.980;19.776;2022-08-21T02:59:16;98650.03;;;20.79;73.98
38939;BME280;24211;49.980;19.776;2022-08-21T03:01:45;98654.66;;;20.79;74.10
38939;BME280;24211;49.980;19.776;2022-08-21T03:04:12;98644.63;;;20.79;73.78
38939;BME280;24211;49.980;19.776;2022-08-21T03:06:39;98650.03;;;20.79;74.10
38939;BME280;24211;49.980;19.776;2022-08-21T03:09:06;98656.59;;;20.78;74.10
38939;BME280;24211;49.980;19.776;2022-08-21T03:11:34;98658.50;;;20.78;73.99
38939;BME280;24211;49.980;19.776;2022-08-21T03:14:03;98663.94;;;20.78;74.13
38939;BME280;24211;49.980;19.776;2022-08-21T03:16:32;98658.19;;;20.79;73.95
38939;BME280;24211;49.980;19.776;2022-08-21T03:19:03;98664.75;;;20.78;74.17
38939;BME280;24211;49.980;19.776;2022-08-21T03:21:30;98671.78;;;20.79;74.45
38939;BME280;24211;49.980;19.776;2022-08-21T03:23:57;98670.97;;;20.79;74.21
38939;BME280;24211;49.980;19.776;2022-08-21T03:26:29;98670.19;;;20.78;74.29
38939;BME280;24211;49.980;19.776;2022-08-21T03:28:57;98674.00;;;20.77;74.42
38939;BME280;24211;49.980;19.776;2022-08-21T03:31:25;98681.03;;;20.78;74.48
38939;BME280;24211;49.980;19.776;2022-08-21T03:33:58;98685.66;;;20.78;74.55
38939;BME280;24211;49.980;19.776;2022-08-21T03:36:25;98688.88;;;20.80;74.18
38939;BME280;24211;49.980;19.776;2022-08-21T03:38:53;98686.47;;;20.78;74.47
38939;BME280;24211;49.980;19.776;2022-08-21T03:41:21;98687.56;;;20.77;74.28
38939;BME280;24211;49.980;19.776;2022-08-21T03:43:48;98693.81;;;20.78;74.53
38939;BME280;24211;49.980;19.776;2022-08-21T03:46:15;98695.41;;;20.79;74.52
38939;BME280;24211;49.980;19.776;2022-08-21T03:48:42;98691.91;;;20.78;74.55
38939;BME280;24211;49.980;19.776;2022-08-21T03:51:10;98687.25;;;20.79;74.54
38939;BME280;24211;49.980;19.776;2022-08-21T03:53:37;98689.19;;;20.78;74.45
38939;BME280;24211;49.980;19.776;2022-08-21T03:56:05;98697.34;;;20.78;75.12
38939;BME280;24211;49.980;19.776;2022-08-21T03:58:33;98694.63;;;20.78;74.87
38939;BME280;24211;49.980;19.776;2022-08-21T04:01:02;98687.25;;;20.79;75.18
38939;BME280;24211;49.980;19.776;2022-08-21T04:03:30;98693.50;;;20.79;74.93
38939;BME280;24211;49.980;19.776;2022-08-21T04:05:57;98695.13;;;20.80;74.89
38939;BME280;24211;49.980;19.776;2022-08-21T04:08:25;98692.41;;;20.80;74.84
38939;BME280;24211;49.980;19.776;2022-08-21T04:10:55;98694.31;;;20.80;75.04
38939;BME280;24211;49.980;19.776;2022-08-21T04:13:23;98695.13;;;20.80;75.15
38939;BME280;24211;49.980;19.776;2022-08-21T04:15:50;98691.28;;;20.81;76.04
38939;BME280;24211;49.980;19.776;2022-08-21T04:18:18;98699.94;;;20.83;75.83
38939;BME280;24211;49.980;19.776;2022-08-21T04:20:49;98695.28;;;20.84;75.33
38939;BME280;24211;49.980;19.776;2022-08-21T04:23:21;98703.16;;;20.85;75.01
38939;BME280;24211;49.980;19.776;2022-08-21T04:25:55;98708.59;;;20.85;75.22
38939;BME280;24211;49.980;19.776;2022-08-21T04:28:25;98699.31;;;20.86;74.92
38939;BME280;24211;49.980;19.776;2022-08-21T04:30:56;98692.78;;;20.88;75.31
38939;BME280;24211;49.980;19.776;2022-08-21T04:33:25;98699.81;;;20.88;75.30
38939;BME280;24211;49.980;19.776;2022-08-21T04:35:52;98694.88;;;20.91;75.18
38939;BME280;24211;49.980;19.776;2022-08-21T04:38:20;98702.41;;;20.94;75.27
38939;BME280;24211;49.980;19.776;2022-08-21T04:40:49;98701.31;;;20.95;75.13
38939;BME280;24211;49.980;19.776;2022-08-21T04:43:18;98695.88;;;20.95;75.27
38939;BME280;24211;49.980;19.776;2022-08-21T04:45:47;98706.13;;;20.98;75.37
38939;BME280;24211;49.980;19.776;2022-08-21T04:48:22;98705.81;;;20.99;75.39
38939;BME280;24211;49.980;19.776;2022-08-21T04:50:57;98705.53;;;21.01;75.20
38939;BME280;24211;49.980;19.776;2022-08-21T04:53:45;98697.88;;;21.03;76.07
38939;BME280;24211;49.980;19.776;2022-08-21T04:56:47;98695.63;;;21.05;75.60
38939;BME280;24211;49.980;19.776;2022-08-21T04:59:22;98701.59;;;21.07;77.57
38939;BME280;24211;49.980;19.776;2022-08-21T05:01:52;98699.84;;;21.11;78.71
38939;BME280;24211;49.980;19.776;2022-08-21T05:04:27;98703.38;;;21.11;79.57
38939;BME280;24211;49.980;19.776;2022-08-21T05:07:02;98706.31;;;21.15;81.09
38939;BME280;24211;49.980;19.776;2022-08-21T05:09:31;98711.13;;;21.18;82.50
38939;BME280;24211;49.980;19.776;2022-08-21T05:12:01;98713.19;;;21.21;83.31
38939;BME280;24211;49.980;19.776;2022-08-21T05:14:30;98713.72;;;21.23;83.12
38939;BME280;24211;49.980;19.776;2022-08-21T05:16:58;98720.13;;;21.27;83.17
38939;BME280;24211;49.980;19.776;2022-08-21T05:19:25;98721.13;;;21.31;83.11
38939;BME280;24211;49.980;19.776;2022-08-21T05:21:53;98708.53;;;21.35;82.98
38939;BME280;24211;49.980;19.776;2022-08-21T05:24:21;98721.47;;;21.38;86.37
38939;BME280;24211;49.980;19.776;2022-08-21T05:26:48;98720.38;;;21.39;88.80
38939;BME280;24211;49.980;19.776;2022-08-21T05:29:16;98717.88;;;21.42;88.38
38939;BME280;24211;49.980;19.776;2022-08-21T05:31:46;98719.66;;;21.47;89.18
38939;BME280;24211;49.980;19.776;2022-08-21T05:34:18;98724.44;;;21.50;91.38
38939;BME280;24211;49.980;19.776;2022-08-21T05:36:47;98725.44;;;21.54;92.37
38939;BME280;24211;49.980;19.776;2022-08-21T05:39:14;98724.84;;;21.57;92.62
38939;BME280;24211;49.980;19.776;2022-08-21T05:41:42;98725.81;;;21.61;95.10
38939;BME280;24211;49.980;19.776;2022-08-21T05:44:09;98722.75;;;21.63;96.39
38939;BME280;24211;49.980;19.776;2022-08-21T05:46:38;98723.78;;;21.67;95.67
38939;BME280;24211;49.980;19.776;2022-08-21T05:49:05;98717.69;;;21.70;93.63
38939;BME280;24211;49.980;19.776;2022-08-21T05:51:32;98731.16;;;21.75;94.35
38939;BME280;24211;49.980;19.776;2022-08-21T05:54:00;98728.94;;;21.77;94.32
38939;BME280;24211;49.980;19.776;2022-08-21T05:56:27;98724.16;;;21.82;92.17
38939;BME280;24211;49.980;19.776;2022-08-21T05:58:55;98724.88;;;21.88;90.86
38939;BME280;24211;49.980;19.776;2022-08-21T06:01:22;98720.41;;;21.92;92.68
38939;BME280;24211;49.980;19.776;2022-08-21T06:03:49;98722.19;;;21.96;92.87
38939;BME280;24211;49.980;19.776;2022-08-21T06:06:17;98711.81;;;21.98;93.88
38939;BME280;24211;49.980;19.776;2022-08-21T06:08:44;98723.66;;;22.02;94.73
38939;BME280;24211;49.980;19.776;2022-08-21T06:11:12;98716.47;;;22.06;93.27
38939;BME280;24211;49.980;19.776;2022-08-21T06:13:39;98716.84;;;22.13;92.38
38939;BME280;24211;49.980;19.776;2022-08-21T06:16:11;98724.84;;;22.19;90.08
38939;BME280;24211;49.980;19.776;2022-08-21T06:18:44;98717.81;;;22.26;91.39
38939;BME280;24211;49.980;19.776;2022-08-21T06:21:13;98722.34;;;22.31;92.12
38939;BME280;24211;49.980;19.776;2022-08-21T06:23:42;98721.06;;;22.37;92.27
38939;BME280;24211;49.980;19.776;2022-08-21T06:26:13;98725.25;;;22.43;91.92
38939;BME280;24211;49.980;19.776;2022-08-21T06:28:43;98720.97;;;22.50;91.38
38939;BME280;24211;49.980;19.776;2022-08-21T07:17:44;98740.00;;;23.41;87.07
38939;BME280;24211;49.980;19.776;2022-08-21T07:20:12;98734.06;;;23.48;91.21
38939;BME280;24211;49.980;19.776;2022-08-21T07:22:40;98735.16;;;23.47;90.20
38939;BME280;24211;49.980;19.776;2022-08-21T07:25:08;98748.81;;;23.47;90.67
38939;BME280;24211;49.980;19.776;2022-08-21T07:27:36;98748.81;;;23.47;89.95
38939;BME280;24211;49.980;19.776;2022-08-21T07:30:05;98735.66;;;23.49;91.24
38939;BME280;24211;49.980;19.776;2022-08-21T07:32:33;98740.63;;;23.47;90.76
38939;BME280;24211;49.980;19.776;2022-08-21T07:35:00;98742.56;;;23.46;91.52
38939;BME280;24211;49.980;19.776;2022-08-21T07:37:27;98734.69;;;23.45;90.73
38939;BME280;24211;49.980;19.776;2022-08-21T07:39:55;98742.41;;;23.42;91.06
38939;BME280;24211;49.980;19.776;2022-08-21T07:42:24;98734.69;;;23.45;91.12
38939;BME280;24211;49.980;19.776;2022-08-21T07:44:51;98748.31;;;23.45;91.35
38939;BME280;24211;49.980;19.776;2022-08-21T07:47:22;98743.03;;;23.48;90.91
38939;BME280;24211;49.980;19.776;2022-08-21T07:50:11;98738.88;;;23.51;90.20
38939;BME280;24211;49.980;19.776;2022-08-21T07:52:41;98738.88;;;23.51;90.76
38939;BME280;24211;49.980;19.776;2022-08-21T07:55:23;98739.81;;;23.55;90.67
38939;BME280;24211;49.980;19.776;2022-08-21T07:57:50;98741.91;;;23.58;90.82
38939;BME280;24211;49.980;19.776;2022-08-21T08:00:24;98744.00;;;23.61;90.60
38939;BME280;24211;49.980;19.776;2022-08-21T08:02:54;98740.13;;;23.62;91.31
38939;BME280;24211;49.980;19.776;2022-08-21T08:05:26;98735.13;;;23.64;90.67
38939;BME280;24211;49.980;19.776;2022-08-21T08:07:54;98748.13;;;23.67;91.30
38939;BME280;24211;49.980;19.776;2022-08-21T08:10:23;98736.59;;;23.70;90.63
38939;BME280;24211;49.980;19.776;2022-08-21T08:12:52;98732.75;;;23.71;91.17
38939;BME280;24211;49.980;19.776;2022-08-21T08:15:26;98736.88;;;23.77;90.04
38939;BME280;24211;49.980;19.776;2022-08-21T08:17:54;98731.44;;;23.77;91.02
38939;BME280;24211;49.980;19.776;2022-08-21T08:20:23;98738.50;;;23.78;91.20
38939;BME280;24211;49.980;19.776;2022-08-21T08:22:54;98741.69;;;23.80;90.13
38939;BME280;24211;49.980;19.776;2022-08-21T08:25:23;98745.25;;;23.80;90.72
38939;BME280;24211;49.980;19.776;2022-08-21T08:27:50;98735.78;;;23.78;91.27
38939;BME280;24211;49.980;19.776;2022-08-21T08:30:19;98729.97;;;23.79;91.12
38939;BME280;24211;49.980;19.776;2022-08-21T08:32:48;98734.00;;;23.82;90.76
38939;BME280;24211;49.980;19.776;2022-08-21T08:35:15;98733.34;;;23.85;89.96
38939;BME280;24211;49.980;19.776;2022-08-21T08:37:43;98730.44;;;23.90;89.80
38939;BME280;24211;49.980;19.776;2022-08-21T08:43:19;98734.75;;;23.99;88.41
38939;BME280;24211;49.980;19.776;2022-08-21T08:45:51;98725.56;;;24.04;89.21
38939;BME280;24211;49.980;19.776;2022-08-21T08:51:33;98729.78;;;24.10;88.90
38939;BME280;24211;49.980;19.776;2022-08-21T08:54:11;98733.91;;;24.16;87.92
38939;BME280;24211;49.980;19.776;2022-08-21T08:56:40;98731.00;;;24.21;85.21
38939;BME280;24211;49.980;19.776;2022-08-21T08:59:19;98721.97;;;24.29;85.73
38939;BME280;24211;49.980;19.776;2022-08-21T09:01:48;98720.00;;;24.38;84.62
38939;BME280;24211;49.980;19.776;2022-08-21T09:04:25;98717.53;;;24.45;84.07
38939;BME280;24211;49.980;19.776;2022-08-21T09:10:21;98714.59;;;24.59;83.40
38939;BME280;24211;49.980;19.776;2022-08-21T09:16:38;98709.50;;;24.69;82.29
38939;BME280;24211;49.980;19.776;2022-08-21T09:19:33;98710.47;;;24.74;83.01
38939;BME280;24211;49.980;19.776;2022-08-21T09:25:22;98705.31;;;24.81;81.76
38939;BME280;24211;49.980;19.776;2022-08-21T09:27:50;98710.56;;;24.86;81.78
38939;BME280;24211;49.980;19.776;2022-08-21T09:30:27;98703.75;;;24.92;81.31
38939;BME280;24211;49.980;19.776;2022-08-21T09:32:56;98704.38;;;24.97;81.31
38939;BME280;24211;49.980;19.776;2022-08-21T09:35:25;98709.28;;;25.04;80.89
38939;BME280;24211;49.980;19.776;2022-08-21T09:38:03;98703.31;;;25.10;80.21
38939;BME280;24211;49.980;19.776;2022-08-21T09:40:45;98702.44;;;25.18;79.57
38939;BME280;24211;49.980;19.776;2022-08-21T09:43:24;98703.97;;;25.28;79.04
38939;BME280;24211;49.980;19.776;2022-08-21T09:46:19;98698.28;;;25.33;79.24
38939;BME280;24211;49.980;19.776;2022-08-21T09:48:52;98685.53;;;25.37;79.30
38939;BME280;24211;49.980;19.776;2022-08-21T09:51:34;98691.59;;;25.43;78.84
38939;BME280;24211;49.980;19.776;2022-08-21T09:56:51;98687.25;;;25.62;77.21
38939;BME280;24211;49.980;19.776;2022-08-21T09:59:39;98681.34;;;25.72;77.00
38939;BME280;24211;49.980;19.776;2022-08-21T10:02:32;98687.97;;;25.83;76.31
38939;BME280;24211;49.980;19.776;2022-08-21T10:05:15;98685.91;;;25.92;75.71
38939;BME280;24211;49.980;19.776;2022-08-21T10:07:43;98684.56;;;26.11;75.67
38939;BME280;24211;49.980;19.776;2022-08-21T10:10:23;98691.75;;;26.03;75.59
38939;BME280;24211;49.980;19.776;2022-08-21T10:16:18;98702.28;;;25.68;76.04
38939;BME280;24211;49.980;19.776;2022-08-21T10:21:57;98720.78;;;25.18;75.46
38939;BME280;24211;49.980;19.776;2022-08-21T10:24:57;98719.81;;;25.14;74.99
38939;BME280;24211;49.980;19.776;2022-08-21T10:27:55;98716.38;;;25.05;73.74
38939;BME280;24211;49.980;19.776;2022-08-21T10:36:02;98723.66;;;24.72;73.44
38939;BME280;24211;49.980;19.776;2022-08-21T10:39:07;98721.78;;;24.63;73.82
38939;BME280;24211;49.980;19.776;2022-08-21T10:42:30;98728.06;;;24.64;73.70
38939;BME280;24211;49.980;19.776;2022-08-21T10:47:54;98716.88;;;24.19;75.01
38939;BME280;24211;49.980;19.776;2022-08-21T10:50:51;98730.72;;;24.14;75.15
38939;BME280;24211;49.980;19.776;2022-08-21T10:53:41;98730.53;;;24.11;75.16
38939;BME280;24211;49.980;19.776;2022-08-21T10:56:30;98741.47;;;24.02;75.28
38939;BME280;24211;49.980;19.776;2022-08-21T11:02:26;98736.97;;;24.15;73.87
38939;BME280;24211;49.980;19.776;2022-08-21T11:05:14;98735.53;;;24.17;73.74
38939;BME280;24211;49.980;19.776;2022-08-21T11:08:10;98736.47;;;24.21;73.73
38939;BME280;24211;49.980;19.776;2022-08-21T11:11:05;98729.91;;;24.14;73.90
38939;BME280;24211;49.980;19.776;2022-08-21T11:13:46;98732.25;;;24.24;73.33
38939;BME280;24211;49.980;19.776;2022-08-21T11:16:43;98735.44;;;24.34;72.76
38939;BME280;24211;49.980;19.776;2022-08-21T11:19:24;98734.25;;;24.44;72.52
38939;BME280;24211;49.980;19.776;2022-08-21T11:22:09;98727.97;;;24.52;71.69
38939;BME280;24211;49.980;19.776;2022-08-21T11:24:56;98734.81;;;24.58;71.28
38939;BME280;24211;49.980;19.776;2022-08-21T11:30:07;98728.56;;;24.57;71.10
38939;BME280;24211;49.980;19.776;2022-08-21T11:33:11;98726.97;;;24.56;71.02
38939;BME280;24211;49.980;19.776;2022-08-21T11:35:47;98726.31;;;24.59;70.86
38939;BME280;24211;49.980;19.776;2022-08-21T11:38:41;98731.63;;;24.56;70.92
38939;BME280;24211;49.980;19.776;2022-08-21T11:41:30;98724.28;;;24.48;71.36
38939;BME280;24211;49.980;19.776;2022-08-21T11:44:27;98719.25;;;24.58;70.80
38939;BME280;24211;49.980;19.776;2022-08-21T11:47:11;98724.06;;;24.61;70.58
38939;BME280;24211;49.980;19.776;2022-08-21T11:53:17;98724.16;;;24.65;70.70
38939;BME280;24211;49.980;19.776;2022-08-21T11:56:00;98732.72;;;24.63;71.03
38939;BME280;24211;49.980;19.776;2022-08-21T11:58:39;98724.97;;;24.65;70.66
38939;BME280;24211;49.980;19.776;2022-08-21T12:01:15;98721.44;;;24.65;70.62
38939;BME280;24211;49.980;19.776;2022-08-21T12:04:03;98724.97;;;24.65;70.70
38939;BME280;24211;49.980;19.776;2022-08-21T12:06:38;98722.16;;;24.53;71.64
38939;BME280;24211;49.980;19.776;2022-08-21T12:09:31;98728.09;;;24.55;71.37
38939;BME280;24211;49.980;19.776;2022-08-21T12:12:23;98722.00;;;24.50;71.61
38939;BME280;24211;49.980;19.776;2022-08-21T12:18:05;98714.72;;;24.62;70.84
38939;BME280;24211;49.980;19.776;2022-08-21T12:23:26;98715.84;;;24.61;70.88
38939;BME280;24211;49.980;19.776;2022-08-21T12:26:36;98699.00;;;24.59;70.99
38939;BME280;24211;49.980;19.776;2022-08-21T12:29:30;98703.13;;;24.65;70.74
38939;BME280;24211;49.980;19.776;2022-08-21T12:35:17;98699.97;;;24.84;69.95
38939;BME280;24211;49.980;19.776;2022-08-21T12:38:13;98707.84;;;24.86;69.81
38939;BME280;24211;49.980;19.776;2022-08-21T12:40:56;98711.56;;;24.81;70.01
38939;BME280;24211;49.980;19.776;2022-08-21T12:43:43;98709.66;;;24.73;70.29
38939;BME280;24211;49.980;19.776;2022-08-21T12:46:29;98708.13;;;24.63;71.03
38939;BME280;24211;49.980;19.776;2022-08-21T12:49:12;98714.50;;;24.67;70.86
38939;BME280;24211;49.980;19.776;2022-08-21T12:52:19;98716.59;;;24.70;70.75
38939;BME280;24211;49.980;19.776;2022-08-21T12:54:47;98712.06;;;24.75;70.29
38939;BME280;24211;49.980;19.776;2022-08-21T12:57:25;98709.16;;;24.80;70.21
38939;BME280;24211;49.980;19.776;2022-08-21T12:59:59;98712.50;;;24.85;70.06
38939;BME280;24211;49.980;19.776;2022-08-21T13:02:36;98725.16;;;24.90;69.74
38939;BME280;24211;49.980;19.776;2022-08-21T13:05:12;98715.50;;;24.92;69.55
38939;BME280;24211;49.980;19.776;2022-08-21T13:07:47;98719.97;;;24.97;69.27
38939;BME280;24211;49.980;19.776;2022-08-21T13:10:27;98713.19;;;25.03;69.17
38939;BME280;24211;49.980;19.776;2022-08-21T13:13:00;98713.28;;;25.06;69.33
38939;BME280;24211;49.980;19.776;2022-08-21T13:15:41;98716.16;;;25.10;69.24
38939;BME280;24211;49.980;19.776;2022-08-21T13:18:29;98715.16;;;25.14;69.05
38939;BME280;24211;49.980;19.776;2022-08-21T13:21:11;98717.84;;;25.23;68.48
38939;BME280;24211;49.980;19.776;2022-08-21T13:23:40;98707.81;;;25.27;68.29
38939;BME280;24211;49.980;19.776;2022-08-21T13:26:21;98716.94;;;25.31;68.43
38939;BME280;24211;49.980;19.776;2022-08-21T13:28:49;98721.28;;;25.32;68.46
38939;BME280;24211;49.980;19.776;2022-08-21T13:31:29;98719.16;;;25.38;68.10
38939;BME280;24211;49.980;19.776;2022-08-21T13:33:59;98722.47;;;25.43;67.80
38939;BME280;24211;49.980;19.776;2022-08-21T13:36:33;98720.25;;;25.45;67.75
38939;BME280;24211;49.980;19.776;2022-08-21T13:39:04;98725.53;;;25.42;68.18
38939;BME280;24211;49.980;19.776;2022-08-21T13:41:37;98725.38;;;25.47;67.92
38939;BME280;24211;49.980;19.776;2022-08-21T13:44:20;98722.81;;;25.42;67.78
38939;BME280;24211;49.980;19.776;2022-08-21T13:46:50;98730.63;;;25.31;68.40
38939;BME280;24211;49.980;19.776;2022-08-21T13:49:23;98723.69;;;25.33;68.40
38939;BME280;24211;49.980;19.776;2022-08-21T13:51:54;98739.97;;;25.30;68.39
38939;BME280;24211;49.980;19.776;2022-08-21T13:54:36;98741.72;;;25.34;68.37
38939;BME280;24211;49.980;19.776;2022-08-21T13:57:16;98738.63;;;25.36;68.38
38939;BME280;24211;49.980;19.776;2022-08-21T13:59:44;98743.63;;;25.34;68.25
38939;BME280;24211;49.980;19.776;2022-08-21T14:02:16;98737.72;;;25.32;68.41
38939;BME280;24211;49.980;19.776;2022-08-21T14:04:55;98737.84;;;25.36;68.22
38939;BME280;24211;49.980;19.776;2022-08-21T14:07:40;98738.50;;;25.32;68.11
38939;BME280;24211;49.980;19.776;2022-08-21T14:10:21;98751.44;;;25.23;68.47
38939;BME280;24211;49.980;19.776;2022-08-21T14:12:58;98743.47;;;25.18;68.72
38939;BME280;24211;49.980;19.776;2022-08-21T14:15:33;98742.66;;;25.18;68.47
38939;BME280;24211;49.980;19.776;2022-08-21T14:20:44;98737.91;;;25.06;69.27
38939;BME280;24211;49.980;19.776;2022-08-21T14:23:26;98734.13;;;24.99;69.49
38939;BME280;24211;49.980;19.776;2022-08-21T14:26:00;98739.09;;;24.97;69.93
38939;BME280;24211;49.980;19.776;2022-08-21T14:28:38;98736.38;;;24.97;69.64
38939;BME280;24211;49.980;19.776;2022-08-21T14:31:19;98740.75;;;24.89;70.09
38939;BME280;24211;49.980;19.776;2022-08-21T14:33:48;98738.91;;;24.81;70.31
38939;BME280;24211;49.980;19.776;2022-08-21T14:36:16;98745.50;;;24.80;70.47
38939;BME280;24211;49.980;19.776;2022-08-21T14:38:43;98755.63;;;24.80;70.43
38939;BME280;24211;49.980;19.776;2022-08-21T14:41:22;98754.19;;;24.74;70.60
38939;BME280;24211;49.980;19.776;2022-08-21T14:43:53;98747.50;;;24.62;70.82
38939;BME280;24211;49.980;19.776;2022-08-21T14:46:33;98756.22;;;24.56;70.76
38939;BME280;24211;49.980;19.776;2022-08-21T14:49:05;98754.19;;;24.44;71.00
38939;BME280;24211;49.980;19.776;2022-08-21T14:51:32;98753.56;;;24.39;71.16
38939;BME280;24211;49.980;19.776;2022-08-21T14:54:00;98754.38;;;24.39;70.59
38939;BME280;24211;49.980;19.776;2022-08-21T14:56:27;98768.41;;;24.21;70.87
38939;BME280;24211;49.980;19.776;2022-08-21T14:59:06;98772.44;;;24.06;71.25
38939;BME280;24211;49.980;19.776;2022-08-21T15:01:37;98780.88;;;23.67;72.93
38939;BME280;24211;49.980;19.776;2022-08-21T15:04:05;98784.75;;;23.66;73.08
38939;BME280;24211;49.980;19.776;2022-08-21T15:06:32;98788.44;;;23.61;72.80
38939;BME280;24211;49.980;19.776;2022-08-21T15:08:59;98788.91;;;23.55;73.17
38939;BME280;24211;49.980;19.776;2022-08-21T15:11:28;98780.75;;;23.46;73.60
38939;BME280;24211;49.980;19.776;2022-08-21T15:14:18;98789.91;;;23.42;73.31
38939;BME280;24211;49.980;19.776;2022-08-21T15:16:48;98785.50;;;23.32;73.63
38939;BME280;24211;49.980;19.776;2022-08-21T15:19:16;98791.44;;;23.25;73.68
38939;BME280;24211;49.980;19.776;2022-08-21T15:21:43;98791.28;;;23.13;74.32
38939;BME280;24211;49.980;19.776;2022-08-21T15:24:10;98791.13;;;23.18;73.62
38939;BME280;24211;49.980;19.776;2022-08-21T15:26:38;98791.13;;;23.01;74.64
38939;BME280;24211;49.980;19.776;2022-08-21T15:29:07;98803.06;;;22.74;76.46
38939;BME280;24211;49.980;19.776;2022-08-21T15:31:50;98802.75;;;22.76;75.83
38939;BME280;24211;49.980;19.776;2022-08-21T15:34:20;98810.59;;;22.69;76.21
38939;BME280;24211;49.980;19.776;2022-08-21T15:36:55;98810.25;;;22.70;75.50
38939;BME280;24211;49.980;19.776;2022-08-21T15:39:27;98820.03;;;22.71;75.34
38939;BME280;24211;49.980;19.776;2022-08-21T15:41:58;98823.34;;;22.60;75.60
38939;BME280;24211;49.980;19.776;2022-08-21T15:44:40;98829.34;;;22.40;77.03
38939;BME280;24211;49.980;19.776;2022-08-21T15:47:17;98842.88;;;22.23;77.94
38939;BME280;24211;49.980;19.776;2022-08-21T15:49:45;98837.44;;;22.23;77.66
38939;BME280;24211;49.980;19.776;2022-08-21T15:52:15;98837.56;;;22.18;77.81
38939;BME280;24211;49.980;19.776;2022-08-21T15:54:43;98838.06;;;21.97;79.17
38939;BME280;24211;49.980;19.776;2022-08-21T15:57:14;98858.53;;;21.95;79.49
38939;BME280;24211;49.980;19.776;2022-08-21T15:59:47;98850.31;;;22.08;78.10
38939;BME280;24211;49.980;19.776;2022-08-21T16:02:23;98858.22;;;22.19;76.78
38939;BME280;24211;49.980;19.776;2022-08-21T16:04:51;98853.69;;;22.14;76.89
38939;BME280;24211;49.980;19.776;2022-08-21T16:07:18;98859.59;;;22.07;77.05
38939;BME280;24211;49.980;19.776;2022-08-21T16:09:45;98854.22;;;21.94;77.90
38939;BME280;24211;49.980;19.776;2022-08-21T16:12:22;98859.69;;;21.80;79.02
38939;BME280;24211;49.980;19.776;2022-08-21T16:14:52;98856.34;;;21.61;80.30
38939;BME280;24211;49.980;19.776;2022-08-21T16:17:27;98860.38;;;21.50;81.39
38939;BME280;24211;49.980;19.776;2022-08-21T16:19:56;98861.50;;;21.49;81.59
38939;BME280;24211;49.980;19.776;2022-08-21T16:22:24;98861.47;;;21.27;83.65
38939;BME280;24211;49.980;19.776;2022-08-21T16:25:11;98856.03;;;21.27;83.91
38939;BME280;24211;49.980;19.776;2022-08-21T16:27:41;98858.25;;;21.25;83.94
38939;BME280;24211;49.980;19.776;2022-08-21T16:30:11;98863.59;;;21.30;83.06
38939;BME280;24211;49.980;19.776;2022-08-21T16:32:39;98859.13;;;21.34;82.46
38939;BME280;24211;49.980;19.776;2022-08-21T16:35:10;98855.66;;;21.06;85.08
38939;BME280;24211;49.980;19.776;2022-08-21T16:37:40;98855.66;;;20.93;86.73
38939;BME280;24211;49.980;19.776;2022-08-21T16:40:08;98855.84;;;20.82;88.36
38939;BME280;24211;49.980;19.776;2022-08-21T16:42:38;98849.09;;;20.80;88.92
38939;BME280;24211;49.980;19.776;2022-08-21T16:45:10;98840.75;;;20.76;89.23
38939;BME280;24211;49.980;19.776;2022-08-21T16:47:38;98840.16;;;20.66;91.00
38939;BME280;24211;49.980;19.776;2022-08-21T16:50:07;98838.03;;;20.63;91.40
38939;BME280;24211;49.980;19.776;2022-08-21T16:52:34;98845.97;;;20.59;91.51
38939;BME280;24211;49.980;19.776;2022-08-21T16:55:03;98844.97;;;20.55;91.84
38939;BME280;24211;49.980;19.776;2022-08-21T16:57:31;98839.94;;;20.62;90.72
38939;BME280;24211;49.980;19.776;2022-08-21T16:59:58;98830.72;;;20.63;89.54
38939;BME280;24211;49.980;19.776;2022-08-21T17:02:35;98837.03;;;20.45;91.31
38939;BME280;24211;49.980;19.776;2022-08-21T17:05:04;98846.78;;;20.46;90.80
38939;BME280;24211;49.980;19.776;2022-08-21T17:07:41;98851.19;;;20.42;90.31
38939;BME280;24211;49.980;19.776;2022-08-21T17:10:12;98849.28;;;20.43;89.73
38939;BME280;24211;49.980;19.776;2022-08-21T17:12:43;98857.13;;;20.44;89.27
38939;BME280;24211;49.980;19.776;2022-08-21T17:15:26;98841.94;;;20.43;88.59
38939;BME280;24211;49.980;19.776;2022-08-21T17:17:55;98847.78;;;20.37;89.19
38939;BME280;24211;49.980;19.776;2022-08-21T17:20:22;98838.94;;;20.31;89.04
38939;BME280;24211;49.980;19.776;2022-08-21T17:22:50;98841.31;;;20.33;88.61
38939;BME280;24211;49.980;19.776;2022-08-21T17:25:18;98845.44;;;20.30;88.47
38939;BME280;24211;49.980;19.776;2022-08-21T17:27:47;98848.16;;;20.30;88.17
38939;BME280;24211;49.980;19.776;2022-08-21T17:30:16;98835.72;;;20.29;87.97
38939;BME280;24211;49.980;19.776;2022-08-21T17:32:45;98842.31;;;20.23;88.47